sensor_id;sensor_type;location;lat;lon;timestamp;temperature;humidity
5786;DHT22;2919;48.630;9.000;2023-12-07T00:01:01;1.20;99.90
5786;DHT22;2919;48.630;9.000;2023-12-07T00:03:27;1.20;99.90
5786;DHT22;2919;48.630;9.000;2023-12-07T00:05:52;1.20;99.90
5786;DHT22;2919;48.630;9.000;2023-12-07T00:08:18;1.20;99.90
5786;DHT22;2919;48.630;9.000;2023-12-07T00:10:43;1.20;99.90
5786;DHT22;2919;48.630;9.000;2023-12-07T00:13:09;1.20;99.90
5786;DHT22;2919;48.630;9.000;2023-12-07T00:15:34;1.20;99.90
5786;DHT22;2919;48.630;9.000;2023-12-07T00:18:00;1.20;99.90
5786;DHT22;2919;48.630;9.000;2023-12-07T00:20:26;1.20;99.90
5786;DHT22;2919;48.630;9.000;2023-12-07T00:22:51;1.10;99.90
5786;DHT22;2919;48.630;9.000;2023-12-07T00:25:17;1.10;99.90
5786;DHT22;2919;48.630;9.000;2023-12-07T00:27:42;1.20;99.90
5786;DHT22;2919;48.630;9.000;2023-12-07T00:30:08;1.10;99.90
5786;DHT22;2919;48.630;9.000;2023-12-07T00:32:34;1.10;99.90
5786;DHT22;2919;48.630;9.000;2023-12-07T00:34:59;1.10;99.90
5786;DHT22;2919;48.630;9.000;2023-12-07T00:37:25;1.10;99.90
5786;DHT22;2919;48.630;9.000;2023-12-07T00:39:50;1.10;99.90
5786;DHT22;2919;48.630;9.000;2023-12-07T00:42:16;1.20;99.90
5786;DHT22;2919;48.630;9.000;2023-12-07T00:44:42;1.20;99.90
5786;DHT22;2919;48.630;9.000;2023-12-07T00:47:07;1.10;99.90
5786;DHT22;2919;48.630;9.000;2023-12-07T00:49:33;1.10;99.90
5786;DHT22;2919;48.630;9.000;2023-12-07T00:51:59;1.10;99.90
5786;DHT22;2919;48.630;9.000;2023-12-07T00:54:24;1.10;99.90
5786;DHT22;2919;48.630;9.000;2023-12-07T00:56:49;1.20;99.90
5786;DHT22;2919;48.630;9.000;2023-12-07T00:59:15;1.20;99.90
5786;DHT22;2919;48.630;9.000;2023-12-07T01:01:40;1.20;99.90
5786;DHT22;2919;48.630;9.000;2023-12-07T01:04:06;1.20;99.90
5786;DHT22;2919;48.630;9.000;2023-12-07T01:06:31;1.20;99.90
5786;DHT22;2919;48.630;9.000;2023-12-07T01:08:57;1.20;99.90
5786;DHT22;2919;48.630;9.000;2023-12-07T01:11:22;1.20;99.90
5786;DHT22;2919;48.630;9.000;2023-12-07T01:13:48;1.20;99.90
5786;DHT22;2919;48.630;9.000;2023-12-07T01:16:14;1.10;99.90
5786;DHT22;2919;48.630;9.000;2023-12-07T01:18:39;1.20;99.90
5786;DHT22;2919;48.630;9.000;2023-12-07T01:21:05;1.10;99.90
5786;DHT22;2919;48.630;9.000;2023-12-07T01:23:31;1.10;99.90
5786;DHT22;2919;48.630;9.000;2023-12-07T01:25:57;1.10;99.90
5786;DHT22;2919;48.630;9.000;2023-12-07T01:28:22;1.10;99.90
5786;DHT22;2919;48.630;9.000;2023-12-07T01:30:48;1.00;99.90
5786;DHT22;2919;48.630;9.000;2023-12-07T01:33:13;1.00;99.90
5786;DHT22;2919;48.630;9.000;2023-12-07T01:35:39;1.00;99.90
5786;DHT22;2919;48.630;9.000;2023-12-07T01:38:04;1.00;99.90
5786;DHT22;2919;48.630;9.000;2023-12-07T01:40:30;0.90;99.90
5786;DHT22;2919;48.630;9.000;2023-12-07T01:42:55;1.00;99.90
5786;DHT22;2919;48.630;9.000;2023-12-07T01:45:21;0.90;99.90
5786;DHT22;2919;48.630;9.000;2023-12-07T01:47:49;0.90;99.90
5786;DHT22;2919;48.630;9.000;2023-12-07T01:50:16;0.90;99.90
5786;DHT22;2919;48.630;9.000;2023-12-07T01:52:47;0.90;99.90
5786;DHT22;2919;48.630;9.000;2023-12-07T01:55:14;0.80;99.90
5786;DHT22;2919;48.630;9.000;2023-12-07T01:57:41;0.70;99.90
5786;DHT22;2919;48.630;9.000;2023-12-07T02:00:08;0.70;99.90
5786;DHT22;2919;48.630;9.000;2023-12-07T02:02:34;0.60;99.90
5786;DHT22;2919;48.630;9.000;2023-12-07T02:05:01;0.60;99.90
5786;DHT22;2919;48.630;9.000;2023-12-07T02:07:27;0.60;99.90
5786;DHT22;2919;48.630;9.000;2023-12-07T02:09:53;0.60;99.90
5786;DHT22;2919;48.630;9.000;2023-12-07T02:12:19;0.50;99.90
5786;DHT22;2919;48.630;9.000;2023-12-07T02:14:45;0.50;99.90
5786;DHT22;2919;48.630;9.000;2023-12-07T02:17:26;0.60;99.90
5786;DHT22;2919;48.630;9.000;2023-12-07T02:20:29;0.60;99.90
5786;DHT22;2919;48.630;9.000;2023-12-07T02:22:59;0.60;99.90
5786;DHT22;2919;48.630;9.000;2023-12-07T02:25:45;0.60;99.90
5786;DHT22;2919;48.630;9.000;2023-12-07T02:28:13;0.60;99.90
5786;DHT22;2919;48.630;9.000;2023-12-07T02:30:39;0.70;99.90
5786;DHT22;2919;48.630;9.000;2023-12-07T02:33:04;0.60;99.90
5786;DHT22;2919;48.630;9.000;2023-12-07T02:35:30;0.60;99.90
5786;DHT22;2919;48.630;9.000;2023-12-07T02:37:56;0.60;99.90
5786;DHT22;2919;48.630;9.000;2023-12-07T02:40:25;0.60;99.90
5786;DHT22;2919;48.630;9.000;2023-12-07T02:42:52;0.60;99.90
5786;DHT22;2919;48.630;9.000;2023-12-07T02:45:18;0.50;99.90
5786;DHT22;2919;48.630;9.000;2023-12-07T02:47:44;0.50;99.90
5786;DHT22;2919;48.630;9.000;2023-12-07T02:50:11;0.40;99.90
5786;DHT22;2919;48.630;9.000;2023-12-07T02:52:37;0.40;99.90
5786;DHT22;2919;48.630;9.000;2023-12-07T02:55:04;0.40;99.90
5786;DHT22;2919;48.630;9.000;2023-12-07T02:57:30;0.40;99.90
5786;DHT22;2919;48.630;9.000;2023-12-07T02:59:56;0.40;99.90
5786;DHT22;2919;48.630;9.000;2023-12-07T03:02:22;0.30;99.90
5786;DHT22;2919;48.630;9.000;2023-12-07T03:04:47;0.30;99.90
5786;DHT22;2919;48.630;9.000;2023-12-07T03:07:13;0.30;99.90
5786;DHT22;2919;48.630;9.000;2023-12-07T03:09:39;0.20;99.90
5786;DHT22;2919;48.630;9.000;2023-12-07T03:12:04;0.30;99.90
5786;DHT22;2919;48.630;9.000;2023-12-07T03:14:30;0.30;99.90
5786;DHT22;2919;48.630;9.000;2023-12-07T03:16:55;0.20;99.90
5786;DHT22;2919;48.630;9.000;2023-12-07T03:19:21;0.20;99.90
5786;DHT22;2919;48.630;9.000;2023-12-07T03:21:46;0.20;99.90
5786;DHT22;2919;48.630;9.000;2023-12-07T03:24:12;0.10;99.90
5786;DHT22;2919;48.630;9.000;2023-12-07T03:26:38;0.20;99.90
5786;DHT22;2919;48.630;9.000;2023-12-07T03:29:04;0.10;99.90
5786;DHT22;2919;48.630;9.000;2023-12-07T03:31:30;0.10;99.90
5786;DHT22;2919;48.630;9.000;2023-12-07T03:33:56;0.10;99.90
5786;DHT22;2919;48.630;9.000;2023-12-07T03:36:22;0.10;99.90
5786;DHT22;2919;48.630;9.000;2023-12-07T03:38:48;0.20;99.90
5786;DHT22;2919;48.630;9.000;2023-12-07T03:41:14;0.20;99.90
5786;DHT22;2919;48.630;9.000;2023-12-07T03:43:39;0.20;99.90
5786;DHT22;2919;48.630;9.000;2023-12-07T03:46:06;0.20;99.90
5786;DHT22;2919;48.630;9.000;2023-12-07T03:48:32;0.20;99.90
5786;DHT22;2919;48.630;9.000;2023-12-07T03:50:58;0.20;99.90
5786;DHT22;2919;48.630;9.000;2023-12-07T03:53:23;0.20;99.90
5786;DHT22;2919;48.630;9.000;2023-12-07T03:55:49;0.20;99.90
5786;DHT22;2919;48.630;9.000;2023-12-07T03:58:14;0.20;99.90
5786;DHT22;2919;48.630;9.000;2023-12-07T04:00:40;0.20;99.90
5786;DHT22;2919;48.630;9.000;2023-12-07T04:03:06;0.20;99.90
5786;DHT22;2919;48.630;9.000;2023-12-07T04:05:32;0.30;99.90
5786;DHT22;2919;48.630;9.000;2023-12-07T04:07:58;0.30;99.90
5786;DHT22;2919;48.630;9.000;2023-12-07T04:10:24;0.20;99.90
5786;DHT22;2919;48.630;9.000;2023-12-07T04:12:49;0.20;99.90
5786;DHT22;2919;48.630;9.000;2023-12-07T04:15:15;0.10;99.90
5786;DHT22;2919;48.630;9.000;2023-12-07T04:17:40;0.10;99.90
5786;DHT22;2919;48.630;9.000;2023-12-07T04:20:06;0.10;99.90
5786;DHT22;2919;48.630;9.000;2023-12-07T04:22:33;0.20;99.90
5786;DHT22;2919;48.630;9.000;2023-12-07T04:24:58;0.10;99.90
5786;DHT22;2919;48.630;9.000;2023-12-07T04:27:24;0.00;99.90
5786;DHT22;2919;48.630;9.000;2023-12-07T04:29:49;0.00;99.90
5786;DHT22;2919;48.630;9.000;2023-12-07T04:32:15;-0.10;99.90
5786;DHT22;2919;48.630;9.000;2023-12-07T04:34:40;-0.20;99.90
5786;DHT22;2919;48.630;9.000;2023-12-07T04:37:05;-0.20;99.90
5786;DHT22;2919;48.630;9.000;2023-12-07T04:39:31;-0.30;99.90
5786;DHT22;2919;48.630;9.000;2023-12-07T04:41:56;-0.30;99.90
5786;DHT22;2919;48.630;9.000;2023-12-07T04:44:22;-0.30;99.90
5786;DHT22;2919;48.630;9.000;2023-12-07T04:46:49;-0.40;99.90
5786;DHT22;2919;48.630;9.000;2023-12-07T04:49:15;-0.40;99.90
5786;DHT22;2919;48.630;9.000;2023-12-07T04:51:40;-0.40;99.90
5786;DHT22;2919;48.630;9.000;2023-12-07T04:54:07;-0.40;99.90
5786;DHT22;2919;48.630;9.000;2023-12-07T04:56:32;-0.30;99.90
5786;DHT22;2919;48.630;9.000;2023-12-07T04:58:58;-0.30;99.90
5786;DHT22;2919;48.630;9.000;2023-12-07T05:01:23;-0.40;99.90
5786;DHT22;2919;48.630;9.000;2023-12-07T05:03:49;-0.30;99.90
5786;DHT22;2919;48.630;9.000;2023-12-07T05:06:14;-0.30;99.90
5786;DHT22;2919;48.630;9.000;2023-12-07T05:08:40;-0.30;99.90
5786;DHT22;2919;48.630;9.000;2023-12-07T05:11:05;-0.20;99.90
5786;DHT22;2919;48.630;9.000;2023-12-07T05:13:32;-0.30;99.90
5786;DHT22;2919;48.630;9.000;2023-12-07T05:15:59;-0.30;99.90
5786;DHT22;2919;48.630;9.000;2023-12-07T05:18:25;-0.30;99.90
5786;DHT22;2919;48.630;9.000;2023-12-07T05:20:50;-0.40;99.90
5786;DHT22;2919;48.630;9.000;2023-12-07T05:23:16;-0.50;99.90
5786;DHT22;2919;48.630;9.000;2023-12-07T05:25:41;-0.60;99.90
5786;DHT22;2919;48.630;9.000;2023-12-07T05:28:07;-0.70;99.90
5786;DHT22;2919;48.630;9.000;2023-12-07T05:30:32;-0.80;99.90
5786;DHT22;2919;48.630;9.000;2023-12-07T05:32:58;-0.80;99.90
5786;DHT22;2919;48.630;9.000;2023-12-07T05:35:23;-0.80;99.90
5786;DHT22;2919;48.630;9.000;2023-12-07T05:37:49;-0.90;99.90
5786;DHT22;2919;48.630;9.000;2023-12-07T05:40:14;-0.90;99.90
5786;DHT22;2919;48.630;9.000;2023-12-07T05:42:41;-0.90;99.90
5786;DHT22;2919;48.630;9.000;2023-12-07T05:45:07;-1.00;99.90
5786;DHT22;2919;48.630;9.000;2023-12-07T05:47:32;-0.90;99.90
5786;DHT22;2919;48.630;9.000;2023-12-07T05:49:58;-0.70;99.90
5786;DHT22;2919;48.630;9.000;2023-12-07T05:52:25;-0.60;99.90
5786;DHT22;2919;48.630;9.000;2023-12-07T05:54:51;-0.60;99.90
5786;DHT22;2919;48.630;9.000;2023-12-07T05:57:16;-0.50;99.90
5786;DHT22;2919;48.630;9.000;2023-12-07T05:59:42;-0.60;99.90
5786;DHT22;2919;48.630;9.000;2023-12-07T06:02:08;-0.60;99.90
5786;DHT22;2919;48.630;9.000;2023-12-07T06:04:34;-0.70;99.90
5786;DHT22;2919;48.630;9.000;2023-12-07T06:06:59;-0.80;99.90
5786;DHT22;2919;48.630;9.000;2023-12-07T06:09:25;-0.80;99.90
5786;DHT22;2919;48.630;9.000;2023-12-07T06:11:50;-0.90;99.90
5786;DHT22;2919;48.630;9.000;2023-12-07T06:14:16;-1.00;99.90
5786;DHT22;2919;48.630;9.000;2023-12-07T06:16:42;-1.00;99.90
5786;DHT22;2919;48.630;9.000;2023-12-07T06:19:07;-1.00;99.90
5786;DHT22;2919;48.630;9.000;2023-12-07T06:21:33;-1.10;99.90
5786;DHT22;2919;48.630;9.000;2023-12-07T06:23:59;-1.10;99.90
5786;DHT22;2919;48.630;9.000;2023-12-07T06:26:25;-1.20;99.90
5786;DHT22;2919;48.630;9.000;2023-12-07T06:28:50;-1.20;99.90
5786;DHT22;2919;48.630;9.000;2023-12-07T06:31:16;-1.30;99.90
5786;DHT22;2919;48.630;9.000;2023-12-07T06:33:45;-1.30;99.90
5786;DHT22;2919;48.630;9.000;2023-12-07T06:36:11;-1.30;99.90
5786;DHT22;2919;48.630;9.000;2023-12-07T06:38:36;-1.30;99.90
5786;DHT22;2919;48.630;9.000;2023-12-07T06:41:03;-1.40;99.90
5786;DHT22;2919;48.630;9.000;2023-12-07T06:43:29;-1.40;99.90
5786;DHT22;2919;48.630;9.000;2023-12-07T06:45:54;-1.50;99.90
5786;DHT22;2919;48.630;9.000;2023-12-07T06:48:20;-1.50;99.90
5786;DHT22;2919;48.630;9.000;2023-12-07T06:50:45;-1.60;99.90
5786;DHT22;2919;48.630;9.000;2023-12-07T06:53:11;-1.70;99.90
5786;DHT22;2919;48.630;9.000;2023-12-07T06:55:36;-1.70;99.90
5786;DHT22;2919;48.630;9.000;2023-12-07T06:58:02;-1.70;99.90
5786;DHT22;2919;48.630;9.000;2023-12-07T07:00:27;-1.70;99.90
5786;DHT22;2919;48.630;9.000;2023-12-07T07:02:53;-1.70;99.90
5786;DHT22;2919;48.630;9.000;2023-12-07T07:05:18;-1.70;99.90
5786;DHT22;2919;48.630;9.000;2023-12-07T07:07:45;-1.80;99.90
5786;DHT22;2919;48.630;9.000;2023-12-07T07:10:10;-1.90;99.90
5786;DHT22;2919;48.630;9.000;2023-12-07T07:12:37;-1.90;99.90
5786;DHT22;2919;48.630;9.000;2023-12-07T07:15:03;-1.90;99.90
5786;DHT22;2919;48.630;9.000;2023-12-07T07:17:28;-2.00;99.90
5786;DHT22;2919;48.630;9.000;2023-12-07T07:19:54;-2.00;99.90
5786;DHT22;2919;48.630;9.000;2023-12-07T07:22:20;-2.00;99.90
5786;DHT22;2919;48.630;9.000;2023-12-07T07:24:47;-2.00;99.90
5786;DHT22;2919;48.630;9.000;2023-12-07T07:27:12;-1.90;99.90
5786;DHT22;2919;48.630;9.000;2023-12-07T07:29:38;-1.90;99.90
5786;DHT22;2919;48.630;9.000;2023-12-07T07:32:03;-2.00;99.90
5786;DHT22;2919;48.630;9.000;2023-12-07T07:34:29;-2.00;99.90
5786;DHT22;2919;48.630;9.000;2023-12-07T07:36:54;-1.90;99.90
5786;DHT22;2919;48.630;9.000;2023-12-07T07:39:20;-1.80;99.90
5786;DHT22;2919;48.630;9.000;2023-12-07T07:41:45;-1.90;99.90
5786;DHT22;2919;48.630;9.000;2023-12-07T07:44:11;-1.90;99.90
5786;DHT22;2919;48.630;9.000;2023-12-07T07:46:36;-1.90;99.90
5786;DHT22;2919;48.630;9.000;2023-12-07T07:49:02;-2.00;99.90
5786;DHT22;2919;48.630;9.000;2023-12-07T07:51:29;-2.00;99.90
5786;DHT22;2919;48.630;9.000;2023-12-07T07:53:55;-2.00;99.90
5786;DHT22;2919;48.630;9.000;2023-12-07T07:56:20;-2.00;99.90
5786;DHT22;2919;48.630;9.000;2023-12-07T07:58:47;-1.90;99.90
5786;DHT22;2919;48.630;9.000;2023-12-07T08:01:13;-1.90;99.90
5786;DHT22;2919;48.630;9.000;2023-12-07T08:03:38;-1.80;99.90
5786;DHT22;2919;48.630;9.000;2023-12-07T08:06:04;-1.80;99.90
5786;DHT22;2919;48.630;9.000;2023-12-07T08:08:30;-1.80;99.90
5786;DHT22;2919;48.630;9.000;2023-12-07T08:10:55;-1.70;99.90
5786;DHT22;2919;48.630;9.000;2023-12-07T08:13:21;-1.70;99.90
5786;DHT22;2919;48.630;9.000;2023-12-07T08:15:46;-1.60;99.90
5786;DHT22;2919;48.630;9.000;2023-12-07T08:18:12;-1.50;99.90
5786;DHT22;2919;48.630;9.000;2023-12-07T08:20:37;-1.50;99.90
5786;DHT22;2919;48.630;9.000;2023-12-07T08:23:03;-1.40;99.90
5786;DHT22;2919;48.630;9.000;2023-12-07T08:25:28;-1.30;99.90
5786;DHT22;2919;48.630;9.000;2023-12-07T08:27:54;-1.20;99.90
5786;DHT22;2919;48.630;9.000;2023-12-07T08:30:19;-1.20;99.90
5786;DHT22;2919;48.630;9.000;2023-12-07T08:32:45;-1.10;99.90
5786;DHT22;2919;48.630;9.000;2023-12-07T08:35:11;-0.80;99.90
5786;DHT22;2919;48.630;9.000;2023-12-07T08:37:39;-0.60;99.90
5786;DHT22;2919;48.630;9.000;2023-12-07T08:40:05;-0.50;99.90
5786;DHT22;2919;48.630;9.000;2023-12-07T08:42:31;-0.40;99.90
5786;DHT22;2919;48.630;9.000;2023-12-07T08:44:57;-0.30;99.90
5786;DHT22;2919;48.630;9.000;2023-12-07T08:47:23;-0.20;99.90
5786;DHT22;2919;48.630;9.000;2023-12-07T08:49:48;0.00;99.90
5786;DHT22;2919;48.630;9.000;2023-12-07T08:52:14;0.20;99.90
5786;DHT22;2919;48.630;9.000;2023-12-07T08:54:40;0.40;99.90
5786;DHT22;2919;48.630;9.000;2023-12-07T08:57:05;0.40;99.90
5786;DHT22;2919;48.630;9.000;2023-12-07T08:59:31;0.50;99.90
5786;DHT22;2919;48.630;9.000;2023-12-07T09:01:56;0.50;99.90
5786;DHT22;2919;48.630;9.000;2023-12-07T09:04:22;0.50;99.90
5786;DHT22;2919;48.630;9.000;2023-12-07T09:06:47;0.60;99.90
5786;DHT22;2919;48.630;9.000;2023-12-07T09:09:13;0.60;99.90
5786;DHT22;2919;48.630;9.000;2023-12-07T09:11:38;0.70;99.90
5786;DHT22;2919;48.630;9.000;2023-12-07T09:14:04;0.80;99.90
5786;DHT22;2919;48.630;9.000;2023-12-07T09:16:29;0.60;99.90
5786;DHT22;2919;48.630;9.000;2023-12-07T09:18:55;0.70;99.90
5786;DHT22;2919;48.630;9.000;2023-12-07T09:21:21;0.80;99.90
5786;DHT22;2919;48.630;9.000;2023-12-07T09:23:46;0.80;99.90
5786;DHT22;2919;48.630;9.000;2023-12-07T09:26:12;0.80;99.90
5786;DHT22;2919;48.630;9.000;2023-12-07T09:28:37;1.00;99.90
5786;DHT22;2919;48.630;9.000;2023-12-07T09:31:05;1.20;99.90
5786;DHT22;2919;48.630;9.000;2023-12-07T09:33:30;1.30;99.90
5786;DHT22;2919;48.630;9.000;2023-12-07T09:35:56;1.50;99.90
5786;DHT22;2919;48.630;9.000;2023-12-07T09:38:21;1.60;99.90
5786;DHT22;2919;48.630;9.000;2023-12-07T09:40:51;1.70;99.90
5786;DHT22;2919;48.630;9.000;2023-12-07T09:43:17;1.80;99.90
5786;DHT22;2919;48.630;9.000;2023-12-07T09:45:44;1.80;99.90
5786;DHT22;2919;48.630;9.000;2023-12-07T09:48:10;1.80;99.90
5786;DHT22;2919;48.630;9.000;2023-12-07T09:50:35;1.80;99.90
5786;DHT22;2919;48.630;9.000;2023-12-07T09:53:01;1.70;99.90
5786;DHT22;2919;48.630;9.000;2023-12-07T09:55:27;1.70;99.90
5786;DHT22;2919;48.630;9.000;2023-12-07T09:57:53;1.70;99.90
5786;DHT22;2919;48.630;9.000;2023-12-07T10:00:22;1.60;99.90
5786;DHT22;2919;48.630;9.000;2023-12-07T10:02:47;1.70;99.90
5786;DHT22;2919;48.630;9.000;2023-12-07T10:05:14;1.80;99.90
5786;DHT22;2919;48.630;9.000;2023-12-07T10:07:43;2.00;99.90
5786;DHT22;2919;48.630;9.000;2023-12-07T10:10:09;2.20;99.90
5786;DHT22;2919;48.630;9.000;2023-12-07T10:12:45;2.20;99.90
5786;DHT22;2919;48.630;9.000;2023-12-07T10:15:12;2.40;99.90
5786;DHT22;2919;48.630;9.000;2023-12-07T10:17:58;2.60;99.90
5786;DHT22;2919;48.630;9.000;2023-12-07T10:20:26;2.80;99.90
5786;DHT22;2919;48.630;9.000;2023-12-07T10:23:04;2.80;99.90
5786;DHT22;2919;48.630;9.000;2023-12-07T10:25:37;2.90;99.90
5786;DHT22;2919;48.630;9.000;2023-12-07T10:28:02;2.80;99.90
5786;DHT22;2919;48.630;9.000;2023-12-07T10:30:32;2.90;99.90
5786;DHT22;2919;48.630;9.000;2023-12-07T10:32:57;3.30;99.90
5786;DHT22;2919;48.630;9.000;2023-12-07T10:35:23;3.40;99.90
5786;DHT22;2919;48.630;9.000;2023-12-07T10:37:48;3.30;99.90
5786;DHT22;2919;48.630;9.000;2023-12-07T10:40:14;3.50;99.90
5786;DHT22;2919;48.630;9.000;2023-12-07T10:42:41;3.60;99.90
5786;DHT22;2919;48.630;9.000;2023-12-07T10:45:08;3.70;99.90
5786;DHT22;2919;48.630;9.000;2023-12-07T10:47:38;3.90;99.90
5786;DHT22;2919;48.630;9.000;2023-12-07T10:50:08;3.90;99.90
5786;DHT22;2919;48.630;9.000;2023-12-07T10:52:39;4.10;99.90
5786;DHT22;2919;48.630;9.000;2023-12-07T10:55:15;4.10;99.90
5786;DHT22;2919;48.630;9.000;2023-12-07T10:57:43;4.20;99.90
5786;DHT22;2919;48.630;9.000;2023-12-07T11:00:09;4.40;99.90
5786;DHT22;2919;48.630;9.000;2023-12-07T11:02:36;4.30;99.70
5786;DHT22;2919;48.630;9.000;2023-12-07T11:05:03;4.40;99.90
5786;DHT22;2919;48.630;9.000;2023-12-07T11:07:38;4.50;99.90
5786;DHT22;2919;48.630;9.000;2023-12-07T11:10:14;4.50;99.10
5786;DHT22;2919;48.630;9.000;2023-12-07T11:12:55;4.30;98.70
5786;DHT22;2919;48.630;9.000;2023-12-07T11:15:21;4.50;99.50
5786;DHT22;2919;48.630;9.000;2023-12-07T11:17:55;4.60;99.00
5786;DHT22;2919;48.630;9.000;2023-12-07T11:20:22;4.50;98.90
5786;DHT22;2919;48.630;9.000;2023-12-07T11:22:57;4.40;99.40
5786;DHT22;2919;48.630;9.000;2023-12-07T11:25:22;4.40;99.10
5786;DHT22;2919;48.630;9.000;2023-12-07T11:27:48;4.30;98.60
5786;DHT22;2919;48.630;9.000;2023-12-07T11:30:14;4.20;98.30
5786;DHT22;2919;48.630;9.000;2023-12-07T11:32:40;4.30;98.80
5786;DHT22;2919;48.630;9.000;2023-12-07T11:35:07;4.50;99.90
5786;DHT22;2919;48.630;9.000;2023-12-07T11:38:08;4.40;98.00
5786;DHT22;2919;48.630;9.000;2023-12-07T11:40:36;4.40;98.40
5786;DHT22;2919;48.630;9.000;2023-12-07T11:43:01;4.50;98.50
5786;DHT22;2919;48.630;9.000;2023-12-07T11:45:46;4.50;97.30
5786;DHT22;2919;48.630;9.000;2023-12-07T11:48:13;4.30;98.00
5786;DHT22;2919;48.630;9.000;2023-12-07T11:53:24;4.40;97.50
5786;DHT22;2919;48.630;9.000;2023-12-07T11:55:51;4.40;98.40
5786;DHT22;2919;48.630;9.000;2023-12-07T11:58:16;4.30;97.10
5786;DHT22;2919;48.630;9.000;2023-12-07T12:00:43;4.20;97.00
5786;DHT22;2919;48.630;9.000;2023-12-07T12:03:10;4.10;96.60
5786;DHT22;2919;48.630;9.000;2023-12-07T12:05:36;4.10;97.20
5786;DHT22;2919;48.630;9.000;2023-12-07T12:08:04;4.10;97.20
5786;DHT22;2919;48.630;9.000;2023-12-07T12:10:30;4.00;97.30
5786;DHT22;2919;48.630;9.000;2023-12-07T12:12:55;4.00;97.60
5786;DHT22;2919;48.630;9.000;2023-12-07T12:15:21;4.00;97.80
5786;DHT22;2919;48.630;9.000;2023-12-07T12:17:46;4.10;97.50
5786;DHT22;2919;48.630;9.000;2023-12-07T12:20:14;4.20;97.70
5786;DHT22;2919;48.630;9.000;2023-12-07T12:22:43;4.20;97.20
5786;DHT22;2919;48.630;9.000;2023-12-07T12:25:08;4.30;97.00
5786;DHT22;2919;48.630;9.000;2023-12-07T12:27:34;4.30;96.80
5786;DHT22;2919;48.630;9.000;2023-12-07T12:30:01;4.30;97.40
5786;DHT22;2919;48.630;9.000;2023-12-07T12:32:27;4.40;96.90
5786;DHT22;2919;48.630;9.000;2023-12-07T12:34:52;4.30;96.60
5786;DHT22;2919;48.630;9.000;2023-12-07T12:37:18;4.20;96.90
5786;DHT22;2919;48.630;9.000;2023-12-07T12:39:44;4.10;96.80
5786;DHT22;2919;48.630;9.000;2023-12-07T12:42:09;4.00;97.00
5786;DHT22;2919;48.630;9.000;2023-12-07T12:44:37;4.00;97.00
5786;DHT22;2919;48.630;9.000;2023-12-07T12:47:07;3.90;96.60
5786;DHT22;2919;48.630;9.000;2023-12-07T12:49:38;3.90;97.20
5786;DHT22;2919;48.630;9.000;2023-12-07T12:52:05;4.00;97.10
5786;DHT22;2919;48.630;9.000;2023-12-07T12:54:34;4.10;97.50
5786;DHT22;2919;48.630;9.000;2023-12-07T12:57:01;4.20;96.30
5786;DHT22;2919;48.630;9.000;2023-12-07T12:59:26;4.40;96.50
5786;DHT22;2919;48.630;9.000;2023-12-07T13:01:52;4.30;96.20
5786;DHT22;2919;48.630;9.000;2023-12-07T13:04:17;4.30;96.40
5786;DHT22;2919;48.630;9.000;2023-12-07T13:06:43;4.30;96.40
5786;DHT22;2919;48.630;9.000;2023-12-07T13:09:09;4.30;96.50
5786;DHT22;2919;48.630;9.000;2023-12-07T13:11:34;4.20;96.00
5786;DHT22;2919;48.630;9.000;2023-12-07T13:14:00;4.30;96.40
5786;DHT22;2919;48.630;9.000;2023-12-07T13:16:32;4.20;96.00
5786;DHT22;2919;48.630;9.000;2023-12-07T13:18:57;4.30;96.10
5786;DHT22;2919;48.630;9.000;2023-12-07T13:21:22;4.20;96.50
5786;DHT22;2919;48.630;9.000;2023-12-07T13:23:48;4.10;96.60
5786;DHT22;2919;48.630;9.000;2023-12-07T13:26:14;4.10;97.00
5786;DHT22;2919;48.630;9.000;2023-12-07T13:28:40;4.20;96.40
5786;DHT22;2919;48.630;9.000;2023-12-07T13:31:05;4.20;96.50
5786;DHT22;2919;48.630;9.000;2023-12-07T13:33:31;4.30;96.60
5786;DHT22;2919;48.630;9.000;2023-12-07T13:35:57;4.30;95.80
5786;DHT22;2919;48.630;9.000;2023-12-07T13:38:23;4.30;95.60
5786;DHT22;2919;48.630;9.000;2023-12-07T13:40:48;4.30;95.40
5786;DHT22;2919;48.630;9.000;2023-12-07T13:43:14;4.30;95.10
5786;DHT22;2919;48.630;9.000;2023-12-07T13:45:40;4.40;94.70
5786;DHT22;2919;48.630;9.000;2023-12-07T13:48:06;4.30;94.10
5786;DHT22;2919;48.630;9.000;2023-12-07T13:50:31;4.30;94.10
5786;DHT22;2919;48.630;9.000;2023-12-07T13:52:57;4.20;94.00
5786;DHT22;2919;48.630;9.000;2023-12-07T13:55:22;4.20;94.10
5786;DHT22;2919;48.630;9.000;2023-12-07T13:57:49;4.10;93.60
5786;DHT22;2919;48.630;9.000;2023-12-07T14:00:18;4.10;94.00
5786;DHT22;2919;48.630;9.000;2023-12-07T14:02:45;4.10;93.90
5786;DHT22;2919;48.630;9.000;2023-12-07T14:05:10;4.10;93.80
5786;DHT22;2919;48.630;9.000;2023-12-07T14:07:36;4.10;93.40
5786;DHT22;2919;48.630;9.000;2023-12-07T14:10:02;3.90;93.70
5786;DHT22;2919;48.630;9.000;2023-12-07T14:12:27;3.90;93.00
5786;DHT22;2919;48.630;9.000;2023-12-07T14:14:53;3.70;93.10
5786;DHT22;2919;48.630;9.000;2023-12-07T14:17:20;3.60;93.20
5786;DHT22;2919;48.630;9.000;2023-12-07T14:19:47;3.50;93.70
5786;DHT22;2919;48.630;9.000;2023-12-07T14:22:14;3.40;94.00
5786;DHT22;2919;48.630;9.000;2023-12-07T14:24:39;3.30;94.40
5786;DHT22;2919;48.630;9.000;2023-12-07T14:27:06;3.20;94.10
5786;DHT22;2919;48.630;9.000;2023-12-07T14:29:32;3.10;94.40
5786;DHT22;2919;48.630;9.000;2023-12-07T14:31:59;3.10;94.50
5786;DHT22;2919;48.630;9.000;2023-12-07T14:34:25;3.00;94.30
5786;DHT22;2919;48.630;9.000;2023-12-07T14:36:52;2.90;94.50
5786;DHT22;2919;48.630;9.000;2023-12-07T14:39:17;2.80;94.50
5786;DHT22;2919;48.630;9.000;2023-12-07T14:41:44;2.80;94.80
5786;DHT22;2919;48.630;9.000;2023-12-07T14:44:16;2.80;95.00
5786;DHT22;2919;48.630;9.000;2023-12-07T14:46:42;2.80;95.40
5786;DHT22;2919;48.630;9.000;2023-12-07T14:49:08;2.70;95.10
5786;DHT22;2919;48.630;9.000;2023-12-07T14:51:34;2.70;95.40
5786;DHT22;2919;48.630;9.000;2023-12-07T14:53:59;2.70;95.50
5786;DHT22;2919;48.630;9.000;2023-12-07T14:56:24;2.60;95.80
5786;DHT22;2919;48.630;9.000;2023-12-07T14:58:50;2.50;96.00
5786;DHT22;2919;48.630;9.000;2023-12-07T15:01:15;2.50;95.90
5786;DHT22;2919;48.630;9.000;2023-12-07T15:03:41;2.50;96.40
5786;DHT22;2919;48.630;9.000;2023-12-07T15:06:07;2.40;96.20
5786;DHT22;2919;48.630;9.000;2023-12-07T15:08:32;2.30;96.60
5786;DHT22;2919;48.630;9.000;2023-12-07T15:10:58;2.30;97.10
5786;DHT22;2919;48.630;9.000;2023-12-07T15:13:23;2.20;97.40
5786;DHT22;2919;48.630;9.000;2023-12-07T15:15:49;2.10;97.60
5786;DHT22;2919;48.630;9.000;2023-12-07T15:18:14;2.10;98.00
5786;DHT22;2919;48.630;9.000;2023-12-07T15:20:40;2.00;98.20
5786;DHT22;2919;48.630;9.000;2023-12-07T15:23:05;2.00;98.40
5786;DHT22;2919;48.630;9.000;2023-12-07T15:25:31;1.90;97.90
5786;DHT22;2919;48.630;9.000;2023-12-07T15:27:57;1.80;98.10
5786;DHT22;2919;48.630;9.000;2023-12-07T15:30:23;1.80;98.10
5786;DHT22;2919;48.630;9.000;2023-12-07T15:32:52;1.80;98.80
5786;DHT22;2919;48.630;9.000;2023-12-07T15:35:17;1.70;97.80
5786;DHT22;2919;48.630;9.000;2023-12-07T15:37:43;1.60;96.70
5786;DHT22;2919;48.630;9.000;2023-12-07T15:40:10;1.60;97.30
5786;DHT22;2919;48.630;9.000;2023-12-07T15:42:36;1.50;97.50
5786;DHT22;2919;48.630;9.000;2023-12-07T15:45:06;1.50;97.40
5786;DHT22;2919;48.630;9.000;2023-12-07T15:47:32;1.40;97.20
5786;DHT22;2919;48.630;9.000;2023-12-07T15:49:58;1.40;97.50
5786;DHT22;2919;48.630;9.000;2023-12-07T15:52:24;1.30;98.00
5786;DHT22;2919;48.630;9.000;2023-12-07T15:54:49;1.30;98.70
5786;DHT22;2919;48.630;9.000;2023-12-07T15:57:15;1.10;98.30
5786;DHT22;2919;48.630;9.000;2023-12-07T15:59:41;1.10;99.00
5786;DHT22;2919;48.630;9.000;2023-12-07T16:02:07;1.00;98.80
5786;DHT22;2919;48.630;9.000;2023-12-07T16:04:32;0.90;98.90
5786;DHT22;2919;48.630;9.000;2023-12-07T16:06:58;0.90;99.20
5786;DHT22;2919;48.630;9.000;2023-12-07T16:09:24;0.80;99.60
5786;DHT22;2919;48.630;9.000;2023-12-07T16:11:49;0.80;99.40